sensor_id;sensor_type;location;lat;lon;timestamp;P1;durP1;ratioP1;P2;durP2;ratioP2
5678;SDS011;2862;52.560;13.566;2023-05-10T00:05:50;19.63;;;4.00;;
5678;SDS011;2862;52.560;13.566;2023-05-10T00:15:53;22.10;;;4.03;;
5678;SDS011;2862;52.560;13.566;2023-05-10T00:25:58;19.13;;;4.03;;
5678;SDS011;2862;52.560;13.566;2023-05-10T00:36:02;26.97;;;3.90;;
5678;SDS011;2862;52.560;13.566;2023-05-10T00:46:07;21.80;;;4.30;;
5678;SDS011;2862;52.560;13.566;2023-05-10T00:56:12;27.17;;;4.80;;
5678;SDS011;2862;52.560;13.566;2023-05-10T01:06:17;17.57;;;3.87;;
5678;SDS011;2862;52.560;13.566;2023-05-10T01:16:20;19.03;;;4.40;;
5678;SDS011;2862;52.560;13.566;2023-05-10T01:26:29;26.87;;;4.37;;
5678;SDS011;2862;52.560;13.566;2023-05-10T01:36:54;20.47;;;4.43;;
5678;SDS011;2862;52.560;13.566;2023-05-10T01:47:03;33.43;;;4.40;;
5678;SDS011;2862;52.560;13.566;2023-05-10T01:57:11;21.27;;;4.73;;
5678;SDS011;2862;52.560;13.566;2023-05-10T02:07:16;19.50;;;4.20;;
5678;SDS011;2862;52.560;13.566;2023-05-10T02:17:22;21.27;;;3.83;;
5678;SDS011;2862;52.560;13.566;2023-05-10T02:27:28;30.03;;;4.40;;
5678;SDS011;2862;52.560;13.566;2023-05-10T02:37:34;19.87;;;4.07;;
5678;SDS011;2862;52.560;13.566;2023-05-10T02:47:39;25.23;;;4.13;;
5678;SDS011;2862;52.560;13.566;2023-05-10T02:57:45;16.77;;;3.10;;
5678;SDS011;2862;52.560;13.566;2023-05-10T03:07:53;23.43;;;5.10;;
5678;SDS011;2862;52.560;13.566;2023-05-10T03:18:01;23.83;;;4.60;;
5678;SDS011;2862;52.560;13.566;2023-05-10T03:28:07;18.90;;;3.30;;
5678;SDS011;2862;52.560;13.566;2023-05-10T03:38:12;20.83;;;3.40;;
5678;SDS011;2862;52.560;13.566;2023-05-10T03:48:16;18.20;;;3.40;;
5678;SDS011;2862;52.560;13.566;2023-05-10T03:58:21;20.13;;;3.60;;
5678;SDS011;2862;52.560;13.566;2023-05-10T04:08:24;19.57;;;3.70;;
5678;SDS011;2862;52.560;13.566;2023-05-10T04:18:29;16.20;;;2.80;;
5678;SDS011;2862;52.560;13.566;2023-05-10T04:28:33;21.37;;;3.07;;
5678;SDS011;2862;52.560;13.566;2023-05-10T04:38:38;18.33;;;3.30;;
5678;SDS011;2862;52.560;13.566;2023-05-10T04:48:42;17.60;;;3.03;;
5678;SDS011;2862;52.560;13.566;2023-05-10T04:58:47;16.10;;;2.73;;
5678;SDS011;2862;52.560;13.566;2023-05-10T05:08:50;20.20;;;2.70;;
5678;SDS011;2862;52.560;13.566;2023-05-10T05:18:55;15.90;;;3.20;;
5678;SDS011;2862;52.560;13.566;2023-05-10T05:28:59;16.10;;;2.20;;
5678;SDS011;2862;52.560;13.566;2023-05-10T05:39:03;13.43;;;1.33;;
5678;SDS011;2862;52.560;13.566;2023-05-10T05:49:07;17.87;;;2.57;;
5678;SDS011;2862;52.560;13.566;2023-05-10T05:59:11;17.83;;;2.00;;
5678;SDS011;2862;52.560;13.566;2023-05-10T06:09:14;14.67;;;2.47;;
5678;SDS011;2862;52.560;13.566;2023-05-10T06:19:19;16.50;;;1.60;;
5678;SDS011;2862;52.560;13.566;2023-05-10T06:29:22;17.67;;;1.17;;
5678;SDS011;2862;52.560;13.566;2023-05-10T06:39:27;14.87;;;0.80;;
5678;SDS011;2862;52.560;13.566;2023-05-10T06:49:31;14.10;;;1.00;;
5678;SDS011;2862;52.560;13.566;2023-05-10T06:59:35;13.57;;;1.40;;
5678;SDS011;2862;52.560;13.566;2023-05-10T07:09:38;14.27;;;1.00;;
5678;SDS011;2862;52.560;13.566;2023-05-10T07:19:42;19.83;;;1.50;;
5678;SDS011;2862;52.560;13.566;2023-05-10T07:29:46;14.43;;;0.73;;
5678;SDS011;2862;52.560;13.566;2023-05-10T07:39:50;14.40;;;0.97;;
5678;SDS011;2862;52.560;13.566;2023-05-10T07:49:53;15.87;;;1.27;;
5678;SDS011;2862;52.560;13.566;2023-05-10T07:59:57;15.93;;;1.20;;
5678;SDS011;2862;52.560;13.566;2023-05-10T08:10:00;19.40;;;1.97;;
5678;SDS011;2862;52.560;13.566;2023-05-10T08:20:05;16.03;;;1.60;;
5678;SDS011;2862;52.560;13.566;2023-05-10T08:30:09;18.43;;;1.70;;
5678;SDS011;2862;52.560;13.566;2023-05-10T08:40:14;14.93;;;0.93;;
5678;SDS011;2862;52.560;13.566;2023-05-10T08:50:18;17.00;;;1.47;;
5678;SDS011;2862;52.560;13.566;2023-05-10T09:00:24;15.63;;;1.40;;
5678;SDS011;2862;52.560;13.566;2023-05-10T09:10:28;15.90;;;1.20;;
5678;SDS011;2862;52.560;13.566;2023-05-10T09:20:34;16.63;;;1.40;;
5678;SDS011;2862;52.560;13.566;2023-05-10T09:30:37;14.77;;;1.20;;
5678;SDS011;2862;52.560;13.566;2023-05-10T09:40:41;17.60;;;1.03;;
5678;SDS011;2862;52.560;13.566;2023-05-10T09:50:58;17.83;;;2.20;;
5678;SDS011;2862;52.560;13.566;2023-05-10T10:01:03;17.80;;;1.90;;
5678;SDS011;2862;52.560;13.566;2023-05-10T10:11:07;18.43;;;1.50;;
5678;SDS011;2862;52.560;13.566;2023-05-10T10:21:12;15.00;;;1.43;;
5678;SDS011;2862;52.560;13.566;2023-05-10T10:31:17;14.87;;;1.33;;
5678;SDS011;2862;52.560;13.566;2023-05-10T10:41:31;17.90;;;1.77;;
5678;SDS011;2862;52.560;13.566;2023-05-10T10:51:36;15.70;;;1.47;;
5678;SDS011;2862;52.560;13.566;2023-05-10T11:01:42;17.33;;;1.70;;
5678;SDS011;2862;52.560;13.566;2023-05-10T11:11:50;19.40;;;1.40;;
5678;SDS011;2862;52.560;13.566;2023-05-10T11:32:25;20.33;;;1.10;;
5678;SDS011;2862;52.560;13.566;2023-05-10T11:42:29;17.00;;;1.63;;
5678;SDS011;2862;52.560;13.566;2023-05-10T11:52:36;18.27;;;1.00;;
5678;SDS011;2862;52.560;13.566;2023-05-10T12:02:39;18.33;;;1.40;;
5678;SDS011;2862;52.560;13.566;2023-05-10T12:12:45;16.73;;;1.23;;
5678;SDS011;2862;52.560;13.566;2023-05-10T12:22:51;14.83;;;1.10;;
5678;SDS011;2862;52.560;13.566;2023-05-10T12:33:00;18.70;;;1.50;;
5678;SDS011;2862;52.560;13.566;2023-05-10T12:43:05;16.83;;;1.10;;
5678;SDS011;2862;52.560;13.566;2023-05-10T12:53:09;19.90;;;1.70;;
5678;SDS011;2862;52.560;13.566;2023-05-10T13:03:13;14.30;;;0.87;;
5678;SDS011;2862;52.560;13.566;2023-05-10T13:13:18;17.10;;;1.73;;
5678;SDS011;2862;52.560;13.566;2023-05-10T13:23:22;15.77;;;1.10;;
5678;SDS011;2862;52.560;13.566;2023-05-10T13:33:27;16.10;;;0.70;;
5678;SDS011;2862;52.560;13.566;2023-05-10T13:43:30;14.50;;;0.50;;
5678;SDS011;2862;52.560;13.566;2023-05-10T13:53:35;23.50;;;0.90;;
5678;SDS011;2862;52.560;13.566;2023-05-10T14:03:39;16.50;;;0.70;;
5678;SDS011;2862;52.560;13.566;2023-05-10T14:13:43;22.73;;;1.47;;
5678;SDS011;2862;52.560;13.566;2023-05-10T14:23:46;12.87;;;0.40;;
5678;SDS011;2862;52.560;13.566;2023-05-10T14:33:51;13.13;;;0.40;;
5678;SDS011;2862;52.560;13.566;2023-05-10T14:43:54;14.77;;;0.80;;
5678;SDS011;2862;52.560;13.566;2023-05-10T14:53:58;13.60;;;0.57;;
5678;SDS011;2862;52.560;13.566;2023-05-10T15:04:01;13.13;;;0.50;;
5678;SDS011;2862;52.560;13.566;2023-05-10T15:14:05;14.37;;;1.43;;
5678;SDS011;2862;52.560;13.566;2023-05-10T15:24:09;14.57;;;0.80;;
5678;SDS011;2862;52.560;13.566;2023-05-10T15:34:13;18.00;;;0.60;;
5678;SDS011;2862;52.560;13.566;2023-05-10T15:44:16;27.33;;;1.70;;
5678;SDS011;2862;52.560;13.566;2023-05-10T15:54:21;17.97;;;2.13;;
5678;SDS011;2862;52.560;13.566;2023-05-10T16:04:24;13.80;;;0.63;;
5678;SDS011;2862;52.560;13.566;2023-05-10T16:14:29;19.87;;;2.83;;
5678;SDS011;2862;52.560;13.566;2023-05-10T16:24:32;17.50;;;1.43;;
5678;SDS011;2862;52.560;13.566;2023-05-10T16:34:36;16.83;;;1.43;;
5678;SDS011;2862;52.560;13.566;2023-05-10T16:44:40;15.90;;;1.40;;
5678;SDS011;2862;52.560;13.566;2023-05-10T16:54:44;16.80;;;2.90;;
5678;SDS011;2862;52.560;13.566;2023-05-10T17:04:47;16.90;;;1.50;;
5678;SDS011;2862;52.560;13.566;2023-05-10T17:14:51;27.40;;;5.50;;
5678;SDS011;2862;52.560;13.566;2023-05-10T17:24:55;23.33;;;4.67;;
5678;SDS011;2862;52.560;13.566;2023-05-10T17:34:59;30.83;;;10.37;;
5678;SDS011;2862;52.560;13.566;2023-05-10T17:45:03;18.07;;;3.53;;
5678;SDS011;2862;52.560;13.566;2023-05-10T17:55:08;26.00;;;9.20;;
5678;SDS011;2862;52.560;13.566;2023-05-10T18:05:13;29.57;;;9.90;;
5678;SDS011;2862;52.560;13.566;2023-05-10T18:15:17;23.50;;;6.80;;
5678;SDS011;2862;52.560;13.566;2023-05-10T18:25:48;28.17;;;11.37;;
5678;SDS011;2862;52.560;13.566;2023-05-10T18:36:23;19.20;;;5.03;;
5678;SDS011;2862;52.560;13.566;2023-05-10T18:46:26;21.53;;;6.50;;
5678;SDS011;2862;52.560;13.566;2023-05-10T18:56:32;33.33;;;12.13;;
5678;SDS011;2862;52.560;13.566;2023-05-10T19:06:35;24.27;;;8.20;;
5678;SDS011;2862;52.560;13.566;2023-05-10T19:16:40;25.27;;;8.40;;
5678;SDS011;2862;52.560;13.566;2023-05-10T19:26:43;25.57;;;8.43;;
5678;SDS011;2862;52.560;13.566;2023-05-10T19:36:50;29.77;;;9.80;;
5678;SDS011;2862;52.560;13.566;2023-05-10T19:46:53;26.67;;;7.50;;
5678;SDS011;2862;52.560;13.566;2023-05-10T19:56:57;30.57;;;10.27;;
5678;SDS011;2862;52.560;13.566;2023-05-10T20:07:01;29.23;;;9.90;;
5678;SDS011;2862;52.560;13.566;2023-05-10T20:27:19;24.87;;;7.37;;
5678;SDS011;2862;52.560;13.566;2023-05-10T20:37:24;45.17;;;23.60;;
5678;SDS011;2862;52.560;13.566;2023-05-10T20:47:29;26.87;;;9.80;;
5678;SDS011;2862;52.560;13.566;2023-05-10T20:57:36;30.00;;;8.80;;
5678;SDS011;2862;52.560;13.566;2023-05-10T21:07:40;28.20;;;9.73;;
5678;SDS011;2862;52.560;13.566;2023-05-10T21:17:44;24.10;;;9.10;;
5678;SDS011;2862;52.560;13.566;2023-05-10T21:27:47;21.67;;;7.30;;
5678;SDS011;2862;52.560;13.566;2023-05-10T21:37:51;22.70;;;8.43;;
5678;SDS011;2862;52.560;13.566;2023-05-10T21:47:55;25.53;;;8.57;;
5678;SDS011;2862;52.560;13.566;2023-05-10T21:57:59;28.47;;;9.63;;
5678;SDS011;2862;52.560;13.566;2023-05-10T22:08:03;24.97;;;8.80;;
5678;SDS011;2862;52.560;13.566;2023-05-10T22:18:08;23.20;;;9.00;;
5678;SDS011;2862;52.560;13.566;2023-05-10T22:28:11;26.67;;;9.57;;
5678;SDS011;2862;52.560;13.566;2023-05-10T22:38:16;29.50;;;9.10;;
5678;SDS011;2862;52.560;13.566;2023-05-10T22:48:19;30.80;;;10.60;;
5678;SDS011;2862;52.560;13.566;2023-05-10T22:58:24;25.83;;;10.00;;
5678;SDS011;2862;52.560;13.566;2023-05-10T23:08:27;26.13;;;11.13;;
5678;SDS011;2862;52.560;13.566;2023-05-10T23:18:32;29.77;;;11.97;;
5678;SDS011;2862;52.560;13.566;2023-05-10T23:28:36;31.80;;;13.73;;
5678;SDS011;2862;52.560;13.566;2023-05-10T23:38:40;33.10;;;13.20;;
5678;SDS011;2862;52.560;13.566;2023-05-10T23:48:43;28.33;;;13.73;;
5678;SDS011;2862;52.560;13.566;2023-05-10T23:58:48;30.67;;;14.33;;
